Bonetraill, North Dakota
Current Conditions -  °F | °C
As of 7:52 AM on Thursday 30 Oct 2014 (Local Time) from KISN Reporting Station
Overcast Overcast  
Wind Chill: 31°   Ceiling: 1100
Heat Index: 37°   Visibility: 10mi
Dew Point: 33°   Wind: 8mph
Humidity: 86%   Direction: 10°N
Pressure: 30.3"   Gusts: NA
Location:  48.3082°N, 103.697°W
Report Text: KISN 301252Z AUTO 01007KT 10SM OVC011 03/01 A3030 RMK AO2 SLP279 T00280006
Loading
Personal Weather Stations






























Interactive Weather Map
Tropical Storm Tracking
New forecast layout! Learn more

10-Day Weather Forecast

Advertisements
Track Severe Weather on mobile